»·PEaware :: N8WV CYQL-KGPI

N8WV :: CYQL-KGPI

FLIGHT INFORMATION

Flight Status: Arrived
Operator: Privately registered:
United States
More flights under this callsign
Pilot: Sherman V. (22519)
Aircraft: CIRRUS SR-22 TURBO
(S22T)
More flights by this aircraft type
Origin: CYQL Lethbridge
Canada
Destination: KGPI Glacier Park Intl
United States
More flights between these airports :: More routes between these airports
Route:
File this flight plan on PilotEdge
Remarks:
Altitude:
(Current/Filed)
14,000ft
Speed:
(Current/Filed)
160kts
Departed: 20-Apr-20 02:42 AM
Arrived: 20-Apr-20 03:20 AM
Distance/Time
Traveled:
98nm/0:38
Distance/Time
To Go:
Arrived

Flight Plot

Page will automatically refresh every two minutes.


Map Options




Map Legend


Flown Route
Filed Route
Departure Airport
Arrival Airport
Navaid (VOR, NDB)
Fix

Horizontal Profiles

Position Reports

Time Latitude Longitude Heading Altitude Ground
Speed
20-Apr-20 02:28 49.633119 -112.788149 100 2999ft 0kts
20-Apr-20 02:29 49.633119 -112.788149 100 2999ft 0kts
20-Apr-20 02:30 49.633119 -112.788149 100 2999ft 0kts
20-Apr-20 02:31 49.633119 -112.788149 100 2999ft 0kts
20-Apr-20 02:32 49.633119 -112.788149 100 2999ft 0kts
20-Apr-20 02:33 49.633119 -112.788149 100 2999ft 0kts
20-Apr-20 02:34 49.633119 -112.788149 100 2999ft 0kts
20-Apr-20 02:35 49.633119 -112.788149 100 2999ft 0kts
20-Apr-20 02:36 49.633119 -112.788149 100 2999ft 0kts
20-Apr-20 02:37 49.633119 -112.788149 100 2999ft 0kts
20-Apr-20 02:38 49.633102 -112.788087 121 2999ft 2kts
20-Apr-20 02:39 49.632395 -112.789005 193 3002ft 10kts
20-Apr-20 02:40 49.629603 -112.790738 250 3011ft 0kts
20-Apr-20 02:41 49.626425 -112.804555 251 3398ft 102kts
20-Apr-20 02:42 49.602153 -112.835880 191 4743ft 158kts
20-Apr-20 02:43 49.563089 -112.866838 219 6090ft 160kts
20-Apr-20 02:44 49.526855 -112.907277 221 7486ft 163kts
20-Apr-20 02:45 49.489969 -112.949023 221 8885ft 167kts
20-Apr-20 02:46 49.452076 -112.992097 221 10290ft 171kts
20-Apr-20 02:47 49.413420 -113.036205 221 11692ft 175kts
20-Apr-20 02:48 49.373761 -113.081292 221 13099ft 178kts
20-Apr-20 02:49 49.332709 -113.127705 221 13945ft 188kts
20-Apr-20 02:50 49.290587 -113.175267 221 13945ft 186kts
20-Apr-20 02:51 49.248494 -113.222692 221 13945ft 186kts
20-Apr-20 02:52 49.206660 -113.269731 221 13945ft 186kts
20-Apr-20 02:53 49.164702 -113.316820 221 13951ft 186kts
20-Apr-20 02:54 49.123040 -113.363451 221 13959ft 185kts
20-Apr-20 02:55 49.082193 -113.409079 221 13968ft 179kts
20-Apr-20 02:56 49.042254 -113.453617 221 13977ft 176kts
20-Apr-20 02:57 49.002763 -113.497632 221 13985ft 174kts
20-Apr-20 02:58 48.963805 -113.541028 220 13990ft 172kts
20-Apr-20 02:59 48.924917 -113.584204 220 13992ft 172kts
20-Apr-20 03:00 48.885977 -113.627271 220 13998ft 172kts
20-Apr-20 03:01 48.846622 -113.670721 220 14013ft 172kts
20-Apr-20 03:02 48.807223 -113.714138 220 14030ft 172kts
20-Apr-20 03:03 48.767959 -113.757317 220 14044ft 173kts
20-Apr-20 03:04 48.728354 -113.800783 220 14045ft 173kts
20-Apr-20 03:05 48.688658 -113.844264 220 14045ft 173kts
20-Apr-20 03:06 48.648970 -113.887651 220 14045ft 173kts
20-Apr-20 03:07 48.608426 -113.931989 219 13237ft 178kts
20-Apr-20 03:08 48.568113 -113.975922 219 12539ft 166kts
20-Apr-20 03:09 48.533003 -114.013710 220 12542ft 143kts
20-Apr-20 03:10 48.500070 -114.049410 220 12554ft 158kts
20-Apr-20 03:11 48.461824 -114.091169 219 12313ft 166kts
20-Apr-20 03:12 48.425570 -114.130271 220 11489ft 154kts
20-Apr-20 03:13 48.391987 -114.167247 221 10547ft 122kts
20-Apr-20 03:14 48.366064 -114.195828 221 8999ft 123kts
20-Apr-20 03:15 48.337768 -114.228965 221 6994ft 131kts
20-Apr-20 03:16 48.309872 -114.263407 221 4966ft 127kts
20-Apr-20 03:17 48.284502 -114.254152 91 3551ft 92kts
20-Apr-20 03:18 48.301763 -114.236904 331 3258ft 83kts
20-Apr-20 03:19 48.315800 -114.254925 307 2970ft 9kts
20-Apr-20 03:20 48.311991 -114.251859 215 2970ft 16kts
20-Apr-20 03:21 48.309854 -114.252580 358 2967ft 0kts
20-Apr-20 03:22 48.309854 -114.252580 358 2967ft 0kts
20-Apr-20 03:23 48.309854 -114.252580 358 2967ft 0kts
20-Apr-20 03:24 48.309854 -114.252580 358 2967ft 0kts
20-Apr-20 03:25 48.309854 -114.252580 358 2967ft 0kts
20-Apr-20 03:26 48.309854 -114.252580 358 2967ft 0kts
20-Apr-20 03:27 48.309854 -114.252580 358 2967ft 0kts
20-Apr-20 03:28 48.309854 -114.252580 358 2967ft 0kts
20-Apr-20 03:29 48.309854 -114.252580 358 2967ft 0kts
20-Apr-20 03:30 48.309854 -114.252580 358 2967ft 0kts
20-Apr-20 03:31 48.309854 -114.252580 358 2967ft 0kts
20-Apr-20 03:32 48.309854 -114.252580 358 2967ft 0kts
20-Apr-20 03:33 48.309854 -114.252580 358 2967ft 0kts

Navigation Log

Ident Type
Flight plan parsing failed, navigation log unavailable